<?xml version="1.0" encoding="UTF-8" standalone="no" ?>
<gpx xmlns="http://www.topografix.com/GPX/1/1" xmlns:xsi="http://www.w3.org/2001/XMLSchema-instance" xsi:schemaLocation="http://www.topografix.com/GPX/1/1 http://www.topografix.com/GPX/1/1/gpx.xsd" version="1.1" creator="VisuGPX - https://www.visugpx.com">
  <metadata>
    <name>St Paul - Le Grand Tunnel</name>
    <desc><![CDATA[Un long tunnel (1000m) lampe obligatoire, sources et bois de pins dans le patrimoine minier de Saint Paul le Jeune.
]]></desc>
  </metadata>
  <trk>
    <name><![CDATA[St Paul Tunnel]]></name>
    <trkseg>
      <trkpt lat="44.33826" lon="4.15198">
        <ele>270</ele>
        <time>2013-10-01T11:56:15Z</time>
      </trkpt>
      <trkpt lat="44.3384" lon="4.15182">
        <ele>275</ele>
        <time>2013-10-01T11:56:34Z</time>
      </trkpt>
      <trkpt lat="44.33855" lon="4.15175">
        <ele>276</ele>
        <time>2013-10-01T11:56:48Z</time>
      </trkpt>
      <trkpt lat="44.33869" lon="4.15163">
        <ele>272</ele>
        <time>2013-10-01T11:57:01Z</time>
      </trkpt>
      <trkpt lat="44.3388" lon="4.15143">
        <ele>274</ele>
        <time>2013-10-01T11:57:16Z</time>
      </trkpt>
      <trkpt lat="44.33892" lon="4.15124">
        <ele>279</ele>
        <time>2013-10-01T11:57:33Z</time>
      </trkpt>
      <trkpt lat="44.33905" lon="4.15109">
        <ele>279</ele>
        <time>2013-10-01T11:57:50Z</time>
      </trkpt>
      <trkpt lat="44.33919" lon="4.15094">
        <ele>278</ele>
        <time>2013-10-01T11:58:05Z</time>
      </trkpt>
      <trkpt lat="44.33933" lon="4.1508">
        <ele>282</ele>
        <time>2013-10-01T11:58:18Z</time>
      </trkpt>
      <trkpt lat="44.33935" lon="4.15056">
        <ele>282</ele>
        <time>2013-10-01T11:58:37Z</time>
      </trkpt>
      <trkpt lat="44.33939" lon="4.15031">
        <ele>282</ele>
        <time>2013-10-01T11:58:58Z</time>
      </trkpt>
      <trkpt lat="44.33946" lon="4.1501">
        <ele>284</ele>
        <time>2013-10-01T11:59:17Z</time>
      </trkpt>
      <trkpt lat="44.33951" lon="4.14987">
        <ele>288</ele>
        <time>2013-10-01T11:59:33Z</time>
      </trkpt>
      <trkpt lat="44.3396" lon="4.14966">
        <ele>282</ele>
        <time>2013-10-01T11:59:55Z</time>
      </trkpt>
      <trkpt lat="44.33963" lon="4.14943">
        <ele>286</ele>
        <time>2013-10-01T12:00:14Z</time>
      </trkpt>
      <trkpt lat="44.3397" lon="4.1492">
        <ele>291</ele>
        <time>2013-10-01T12:00:32Z</time>
      </trkpt>
      <trkpt lat="44.33976" lon="4.14898">
        <ele>298</ele>
        <time>2013-10-01T12:00:52Z</time>
      </trkpt>
      <trkpt lat="44.33982" lon="4.14875">
        <ele>300</ele>
        <time>2013-10-01T12:01:12Z</time>
      </trkpt>
      <trkpt lat="44.33972" lon="4.14855">
        <ele>304</ele>
        <time>2013-10-01T12:01:34Z</time>
      </trkpt>
      <trkpt lat="44.33961" lon="4.14835">
        <ele>300</ele>
        <time>2013-10-01T12:01:58Z</time>
      </trkpt>
      <trkpt lat="44.3397" lon="4.14814">
        <ele>304</ele>
        <time>2013-10-01T12:02:22Z</time>
      </trkpt>
      <trkpt lat="44.33974" lon="4.1479">
        <ele>305</ele>
        <time>2013-10-01T12:02:46Z</time>
      </trkpt>
      <trkpt lat="44.33968" lon="4.14767">
        <ele>302</ele>
        <time>2013-10-01T12:03:08Z</time>
      </trkpt>
      <trkpt lat="44.33971" lon="4.14744">
        <ele>304</ele>
        <time>2013-10-01T12:03:28Z</time>
      </trkpt>
      <trkpt lat="44.33974" lon="4.1472">
        <ele>309</ele>
        <time>2013-10-01T12:03:48Z</time>
      </trkpt>
      <trkpt lat="44.33979" lon="4.14695">
        <ele>312</ele>
        <time>2013-10-01T12:04:08Z</time>
      </trkpt>
      <trkpt lat="44.33986" lon="4.14674">
        <ele>314</ele>
        <time>2013-10-01T12:04:25Z</time>
      </trkpt>
      <trkpt lat="44.33997" lon="4.14654">
        <ele>317</ele>
        <time>2013-10-01T12:04:41Z</time>
      </trkpt>
      <trkpt lat="44.34004" lon="4.14632">
        <ele>317</ele>
        <time>2013-10-01T12:05:21Z</time>
      </trkpt>
      <trkpt lat="44.34013" lon="4.14612">
        <ele>319</ele>
        <time>2013-10-01T12:05:40Z</time>
      </trkpt>
      <trkpt lat="44.34026" lon="4.14595">
        <ele>316</ele>
        <time>2013-10-01T12:05:58Z</time>
      </trkpt>
      <trkpt lat="44.3404" lon="4.1458">
        <ele>313</ele>
        <time>2013-10-01T12:06:16Z</time>
      </trkpt>
      <trkpt lat="44.34055" lon="4.14566">
        <ele>312</ele>
        <time>2013-10-01T12:06:34Z</time>
      </trkpt>
      <trkpt lat="44.34068" lon="4.14555">
        <ele>314</ele>
        <time>2013-10-01T12:06:51Z</time>
      </trkpt>
      <trkpt lat="44.34085" lon="4.14552">
        <ele>315</ele>
        <time>2013-10-01T12:07:05Z</time>
      </trkpt>
      <trkpt lat="44.34102" lon="4.1455">
        <ele>314</ele>
        <time>2013-10-01T12:07:21Z</time>
      </trkpt>
      <trkpt lat="44.34118" lon="4.14539">
        <ele>317</ele>
        <time>2013-10-01T12:07:44Z</time>
      </trkpt>
      <trkpt lat="44.34135" lon="4.14536">
        <ele>321</ele>
        <time>2013-10-01T12:07:54Z</time>
      </trkpt>
      <trkpt lat="44.34152" lon="4.14538">
        <ele>323</ele>
        <time>2013-10-01T12:08:07Z</time>
      </trkpt>
      <trkpt lat="44.3417" lon="4.14534">
        <ele>320</ele>
        <time>2013-10-01T12:08:33Z</time>
      </trkpt>
      <trkpt lat="44.34187" lon="4.14536">
        <ele>317</ele>
        <time>2013-10-01T12:08:50Z</time>
      </trkpt>
      <trkpt lat="44.34205" lon="4.14539">
        <ele>318</ele>
        <time>2013-10-01T12:09:09Z</time>
      </trkpt>
      <trkpt lat="44.34221" lon="4.14541">
        <ele>318</ele>
        <time>2013-10-01T12:09:29Z</time>
      </trkpt>
      <trkpt lat="44.34238" lon="4.1454">
        <ele>323</ele>
        <time>2013-10-01T12:09:40Z</time>
      </trkpt>
      <trkpt lat="44.34256" lon="4.14534">
        <ele>317</ele>
        <time>2013-10-01T12:10:01Z</time>
      </trkpt>
      <trkpt lat="44.34272" lon="4.14533">
        <ele>319</ele>
        <time>2013-10-01T12:10:17Z</time>
      </trkpt>
      <trkpt lat="44.34289" lon="4.14529">
        <ele>328</ele>
        <time>2013-10-01T12:10:31Z</time>
      </trkpt>
      <trkpt lat="44.34306" lon="4.14527">
        <ele>324</ele>
        <time>2013-10-01T12:10:49Z</time>
      </trkpt>
      <trkpt lat="44.34323" lon="4.14522">
        <ele>322</ele>
        <time>2013-10-01T12:11:08Z</time>
      </trkpt>
      <trkpt lat="44.3434" lon="4.14522">
        <ele>324</ele>
        <time>2013-10-01T12:11:23Z</time>
      </trkpt>
      <trkpt lat="44.34357" lon="4.14524">
        <ele>324</ele>
        <time>2013-10-01T12:11:38Z</time>
      </trkpt>
      <trkpt lat="44.34375" lon="4.14527">
        <ele>322</ele>
        <time>2013-10-01T12:11:57Z</time>
      </trkpt>
      <trkpt lat="44.34392" lon="4.14532">
        <ele>321</ele>
        <time>2013-10-01T12:12:17Z</time>
      </trkpt>
      <trkpt lat="44.34409" lon="4.14523">
        <ele>328</ele>
        <time>2013-10-01T12:12:39Z</time>
      </trkpt>
      <trkpt lat="44.34425" lon="4.14513">
        <ele>333</ele>
        <time>2013-10-01T12:12:51Z</time>
      </trkpt>
      <trkpt lat="44.34442" lon="4.14509">
        <ele>332</ele>
        <time>2013-10-01T12:13:10Z</time>
      </trkpt>
      <trkpt lat="44.3446" lon="4.1451">
        <ele>336</ele>
        <time>2013-10-01T12:13:26Z</time>
      </trkpt>
      <trkpt lat="44.34476" lon="4.14504">
        <ele>335</ele>
        <time>2013-10-01T12:13:44Z</time>
      </trkpt>
      <trkpt lat="44.34492" lon="4.14493">
        <ele>338</ele>
        <time>2013-10-01T12:14:03Z</time>
      </trkpt>
      <trkpt lat="44.34509" lon="4.14495">
        <ele>336</ele>
        <time>2013-10-01T12:14:27Z</time>
      </trkpt>
      <trkpt lat="44.34527" lon="4.14493">
        <ele>339</ele>
        <time>2013-10-01T12:14:45Z</time>
      </trkpt>
      <trkpt lat="44.34545" lon="4.14496">
        <ele>342</ele>
        <time>2013-10-01T12:15:44Z</time>
      </trkpt>
      <trkpt lat="44.34562" lon="4.14493">
        <ele>342</ele>
        <time>2013-10-01T12:16:06Z</time>
      </trkpt>
      <trkpt lat="44.34579" lon="4.14497">
        <ele>343</ele>
        <time>2013-10-01T12:16:22Z</time>
      </trkpt>
      <trkpt lat="44.34596" lon="4.14508">
        <ele>348</ele>
        <time>2013-10-01T12:16:42Z</time>
      </trkpt>
      <trkpt lat="44.34612" lon="4.14513">
        <ele>339</ele>
        <time>2013-10-01T12:17:00Z</time>
      </trkpt>
      <trkpt lat="44.34628" lon="4.14523">
        <ele>338</ele>
        <time>2013-10-01T12:17:25Z</time>
      </trkpt>
      <trkpt lat="44.34643" lon="4.14535">
        <ele>334</ele>
        <time>2013-10-01T12:17:39Z</time>
      </trkpt>
      <trkpt lat="44.34658" lon="4.14548">
        <ele>338</ele>
        <time>2013-10-01T12:17:58Z</time>
      </trkpt>
      <trkpt lat="44.3467" lon="4.14531">
        <ele>344</ele>
        <time>2013-10-01T12:18:19Z</time>
      </trkpt>
      <trkpt lat="44.34671" lon="4.14506">
        <ele>350</ele>
        <time>2013-10-01T12:18:38Z</time>
      </trkpt>
      <trkpt lat="44.3467" lon="4.14481">
        <ele>350</ele>
        <time>2013-10-01T12:18:55Z</time>
      </trkpt>
      <trkpt lat="44.34656" lon="4.14465">
        <ele>347</ele>
        <time>2013-10-01T12:19:12Z</time>
      </trkpt>
      <trkpt lat="44.3464" lon="4.14459">
        <ele>347</ele>
        <time>2013-10-01T12:19:24Z</time>
      </trkpt>
      <trkpt lat="44.34623" lon="4.14453">
        <ele>350</ele>
        <time>2013-10-01T12:19:40Z</time>
      </trkpt>
      <trkpt lat="44.34606" lon="4.14448">
        <ele>348</ele>
        <time>2013-10-01T12:19:55Z</time>
      </trkpt>
      <trkpt lat="44.34592" lon="4.14433">
        <ele>344</ele>
        <time>2013-10-01T12:20:14Z</time>
      </trkpt>
      <trkpt lat="44.34581" lon="4.14413">
        <ele>349</ele>
        <time>2013-10-01T12:20:30Z</time>
      </trkpt>
      <trkpt lat="44.34583" lon="4.14389">
        <ele>350</ele>
        <time>2013-10-01T12:20:47Z</time>
      </trkpt>
      <trkpt lat="44.34593" lon="4.14368">
        <ele>354</ele>
        <time>2013-10-01T12:21:27Z</time>
      </trkpt>
      <trkpt lat="44.34603" lon="4.14347">
        <ele>350</ele>
        <time>2013-10-01T12:26:36Z</time>
      </trkpt>
      <trkpt lat="44.34615" lon="4.14328">
        <ele>343</ele>
        <time>2013-10-01T12:28:45Z</time>
      </trkpt>
      <trkpt lat="44.34627" lon="4.1431">
        <ele>337</ele>
        <time>2013-10-01T12:29:06Z</time>
      </trkpt>
      <trkpt lat="44.3464" lon="4.14296">
        <ele>339</ele>
        <time>2013-10-01T12:29:21Z</time>
      </trkpt>
      <trkpt lat="44.34651" lon="4.14278">
        <ele>343</ele>
        <time>2013-10-01T12:29:35Z</time>
      </trkpt>
      <trkpt lat="44.34663" lon="4.1426">
        <ele>344</ele>
        <time>2013-10-01T12:29:50Z</time>
      </trkpt>
      <trkpt lat="44.34667" lon="4.14236">
        <ele>344</ele>
        <time>2013-10-01T12:30:07Z</time>
      </trkpt>
      <trkpt lat="44.34679" lon="4.14218">
        <ele>345</ele>
        <time>2013-10-01T12:30:24Z</time>
      </trkpt>
      <trkpt lat="44.34691" lon="4.142">
        <ele>350</ele>
        <time>2013-10-01T12:30:43Z</time>
      </trkpt>
      <trkpt lat="44.34704" lon="4.14183">
        <ele>351</ele>
        <time>2013-10-01T12:31:03Z</time>
      </trkpt>
      <trkpt lat="44.34713" lon="4.14162">
        <ele>351</ele>
        <time>2013-10-01T12:31:23Z</time>
      </trkpt>
      <trkpt lat="44.34726" lon="4.14144">
        <ele>358</ele>
        <time>2013-10-01T12:31:41Z</time>
      </trkpt>
      <trkpt lat="44.3473" lon="4.1412">
        <ele>359</ele>
        <time>2013-10-01T12:32:07Z</time>
      </trkpt>
      <trkpt lat="44.34716" lon="4.14105">
        <ele>357</ele>
        <time>2013-10-01T12:32:24Z</time>
      </trkpt>
      <trkpt lat="44.347" lon="4.14093">
        <ele>354</ele>
        <time>2013-10-01T12:32:44Z</time>
      </trkpt>
      <trkpt lat="44.34683" lon="4.14093">
        <ele>350</ele>
        <time>2013-10-01T12:32:59Z</time>
      </trkpt>
      <trkpt lat="44.34665" lon="4.14091">
        <ele>337</ele>
        <time>2013-10-01T12:33:14Z</time>
      </trkpt>
      <trkpt lat="44.34649" lon="4.14099">
        <ele>343</ele>
        <time>2013-10-01T12:33:29Z</time>
      </trkpt>
      <trkpt lat="44.34632" lon="4.14106">
        <ele>344</ele>
        <time>2013-10-01T12:33:45Z</time>
      </trkpt>
      <trkpt lat="44.34616" lon="4.14114">
        <ele>347</ele>
        <time>2013-10-01T12:34:01Z</time>
      </trkpt>
      <trkpt lat="44.34599" lon="4.1412">
        <ele>330</ele>
        <time>2013-10-01T12:34:20Z</time>
      </trkpt>
      <trkpt lat="44.34585" lon="4.14133">
        <ele>337</ele>
        <time>2013-10-01T12:34:36Z</time>
      </trkpt>
      <trkpt lat="44.34569" lon="4.14144">
        <ele>346</ele>
        <time>2013-10-01T12:34:55Z</time>
      </trkpt>
      <trkpt lat="44.34553" lon="4.14153">
        <ele>342</ele>
        <time>2013-10-01T12:35:09Z</time>
      </trkpt>
      <trkpt lat="44.34536" lon="4.14156">
        <ele>335</ele>
        <time>2013-10-01T12:35:25Z</time>
      </trkpt>
      <trkpt lat="44.34519" lon="4.14162">
        <ele>330</ele>
        <time>2013-10-01T12:35:39Z</time>
      </trkpt>
      <trkpt lat="44.34503" lon="4.14168">
        <ele>317</ele>
        <time>2013-10-01T12:35:55Z</time>
      </trkpt>
      <trkpt lat="44.34486" lon="4.14173">
        <ele>303</ele>
        <time>2013-10-01T12:36:11Z</time>
      </trkpt>
      <trkpt lat="44.34471" lon="4.14186">
        <ele>297</ele>
        <time>2013-10-01T12:36:28Z</time>
      </trkpt>
      <trkpt lat="44.34453" lon="4.1419">
        <ele>290</ele>
        <time>2013-10-01T12:36:44Z</time>
      </trkpt>
      <trkpt lat="44.34438" lon="4.142">
        <ele>294</ele>
        <time>2013-10-01T12:36:59Z</time>
      </trkpt>
      <trkpt lat="44.34423" lon="4.14211">
        <ele>318</ele>
        <time>2013-10-01T12:37:13Z</time>
      </trkpt>
      <trkpt lat="44.34406" lon="4.14206">
        <ele>327</ele>
        <time>2013-10-01T12:37:27Z</time>
      </trkpt>
      <trkpt lat="44.34391" lon="4.14215">
        <ele>354</ele>
        <time>2013-10-01T12:39:47Z</time>
      </trkpt>
      <trkpt lat="44.34373" lon="4.1422">
        <ele>339</ele>
        <time>2013-10-01T12:40:07Z</time>
      </trkpt>
      <trkpt lat="44.34364" lon="4.14242">
        <ele>341</ele>
        <time>2013-10-01T12:40:35Z</time>
      </trkpt>
      <trkpt lat="44.34353" lon="4.14261">
        <ele>327</ele>
        <time>2013-10-01T12:41:26Z</time>
      </trkpt>
      <trkpt lat="44.3434" lon="4.14278">
        <ele>306</ele>
        <time>2013-10-01T12:42:09Z</time>
      </trkpt>
      <trkpt lat="44.34325" lon="4.1429">
        <ele>298</ele>
        <time>2013-10-01T12:42:38Z</time>
      </trkpt>
      <trkpt lat="44.34313" lon="4.14309">
        <ele>323</ele>
        <time>2013-10-01T12:43:12Z</time>
      </trkpt>
      <trkpt lat="44.34298" lon="4.14323">
        <ele>317</ele>
        <time>2013-10-01T12:44:24Z</time>
      </trkpt>
      <trkpt lat="44.34298" lon="4.14347">
        <ele>312</ele>
        <time>2013-10-01T12:47:01Z</time>
      </trkpt>
      <trkpt lat="44.34299" lon="4.14372">
        <ele>308</ele>
        <time>2013-10-01T12:47:45Z</time>
      </trkpt>
      <trkpt lat="44.34316" lon="4.14367">
        <ele>312</ele>
        <time>2013-10-01T12:48:30Z</time>
      </trkpt>
      <trkpt lat="44.34332" lon="4.14358">
        <ele>314</ele>
        <time>2013-10-01T12:48:56Z</time>
      </trkpt>
      <trkpt lat="44.34349" lon="4.14357">
        <ele>321</ele>
        <time>2013-10-01T12:49:20Z</time>
      </trkpt>
      <trkpt lat="44.34364" lon="4.14343">
        <ele>308</ele>
        <time>2013-10-01T12:50:02Z</time>
      </trkpt>
      <trkpt lat="44.3438" lon="4.14337">
        <ele>313</ele>
        <time>2013-10-01T12:50:28Z</time>
      </trkpt>
      <trkpt lat="44.34397" lon="4.14331">
        <ele>314</ele>
        <time>2013-10-01T12:50:50Z</time>
      </trkpt>
      <trkpt lat="44.34414" lon="4.14322">
        <ele>325</ele>
        <time>2013-10-01T12:51:55Z</time>
      </trkpt>
      <trkpt lat="44.34431" lon="4.14328">
        <ele>318</ele>
        <time>2013-10-01T12:52:17Z</time>
      </trkpt>
      <trkpt lat="44.34448" lon="4.14327">
        <ele>325</ele>
        <time>2013-10-01T12:52:34Z</time>
      </trkpt>
      <trkpt lat="44.34465" lon="4.1432">
        <ele>319</ele>
        <time>2013-10-01T12:53:15Z</time>
      </trkpt>
      <trkpt lat="44.3448" lon="4.14308">
        <ele>322</ele>
        <time>2013-10-01T12:53:31Z</time>
      </trkpt>
      <trkpt lat="44.34495" lon="4.14295">
        <ele>326</ele>
        <time>2013-10-01T12:53:54Z</time>
      </trkpt>
      <trkpt lat="44.34512" lon="4.14286">
        <ele>325</ele>
        <time>2013-10-01T12:54:24Z</time>
      </trkpt>
      <trkpt lat="44.3452" lon="4.14265">
        <ele>314</ele>
        <time>2013-10-01T12:54:55Z</time>
      </trkpt>
      <trkpt lat="44.34527" lon="4.14243">
        <ele>332</ele>
        <time>2013-10-01T12:55:16Z</time>
      </trkpt>
      <trkpt lat="44.3452" lon="4.14265">
        <ele>324</ele>
        <time>2013-10-01T13:01:27Z</time>
      </trkpt>
      <trkpt lat="44.34509" lon="4.14283">
        <ele>315</ele>
        <time>2013-10-01T13:02:00Z</time>
      </trkpt>
      <trkpt lat="44.34494" lon="4.14297">
        <ele>306</ele>
        <time>2013-10-01T13:02:48Z</time>
      </trkpt>
      <trkpt lat="44.34477" lon="4.14306">
        <ele>309</ele>
        <time>2013-10-01T13:03:09Z</time>
      </trkpt>
      <trkpt lat="44.34461" lon="4.14315">
        <ele>299</ele>
        <time>2013-10-01T13:03:32Z</time>
      </trkpt>
      <trkpt lat="44.34445" lon="4.14324">
        <ele>304</ele>
        <time>2013-10-01T13:03:51Z</time>
      </trkpt>
      <trkpt lat="44.34427" lon="4.14323">
        <ele>301</ele>
        <time>2013-10-01T13:04:13Z</time>
      </trkpt>
      <trkpt lat="44.3441" lon="4.14327">
        <ele>307</ele>
        <time>2013-10-01T13:04:31Z</time>
      </trkpt>
      <trkpt lat="44.34394" lon="4.14333">
        <ele>311</ele>
        <time>2013-10-01T13:04:53Z</time>
      </trkpt>
      <trkpt lat="44.34377" lon="4.14341">
        <ele>311</ele>
        <time>2013-10-01T13:05:12Z</time>
      </trkpt>
      <trkpt lat="44.34359" lon="4.14344">
        <ele>303</ele>
        <time>2013-10-01T13:05:37Z</time>
      </trkpt>
      <trkpt lat="44.34342" lon="4.14353">
        <ele>318</ele>
        <time>2013-10-01T13:06:22Z</time>
      </trkpt>
      <trkpt lat="44.34325" lon="4.14358">
        <ele>313</ele>
        <time>2013-10-01T13:07:59Z</time>
      </trkpt>
      <trkpt lat="44.34309" lon="4.14368">
        <ele>303</ele>
        <time>2013-10-01T13:08:27Z</time>
      </trkpt>
      <trkpt lat="44.34295" lon="4.14354">
        <ele>288</ele>
        <time>2013-10-01T13:09:10Z</time>
      </trkpt>
      <trkpt lat="44.34288" lon="4.14331">
        <ele>303</ele>
        <time>2013-10-01T13:10:14Z</time>
      </trkpt>
      <trkpt lat="44.34302" lon="4.14314">
        <ele>319</ele>
        <time>2013-10-01T13:10:59Z</time>
      </trkpt>
      <trkpt lat="44.34318" lon="4.14305">
        <ele>322</ele>
        <time>2013-10-01T13:11:32Z</time>
      </trkpt>
      <trkpt lat="44.34332" lon="4.14293">
        <ele>326</ele>
        <time>2013-10-01T13:12:17Z</time>
      </trkpt>
      <trkpt lat="44.34344" lon="4.14274">
        <ele>331</ele>
        <time>2013-10-01T13:12:51Z</time>
      </trkpt>
      <trkpt lat="44.3436" lon="4.14284">
        <ele>352</ele>
        <time>2013-10-01T13:13:44Z</time>
      </trkpt>
      <trkpt lat="44.34345" lon="4.14272">
        <ele>328</ele>
        <time>2013-10-01T13:17:41Z</time>
      </trkpt>
      <trkpt lat="44.34352" lon="4.1425">
        <ele>330</ele>
        <time>2013-10-01T13:20:27Z</time>
      </trkpt>
      <trkpt lat="44.3436" lon="4.14228">
        <ele>322</ele>
        <time>2013-10-01T13:21:04Z</time>
      </trkpt>
      <trkpt lat="44.34349" lon="4.1421">
        <ele>334</ele>
        <time>2013-10-01T13:21:24Z</time>
      </trkpt>
      <trkpt lat="44.34334" lon="4.142">
        <ele>332</ele>
        <time>2013-10-01T13:21:42Z</time>
      </trkpt>
      <trkpt lat="44.34317" lon="4.14199">
        <ele>327</ele>
        <time>2013-10-01T13:21:59Z</time>
      </trkpt>
      <trkpt lat="44.34299" lon="4.14197">
        <ele>326</ele>
        <time>2013-10-01T13:22:17Z</time>
      </trkpt>
      <trkpt lat="44.34284" lon="4.14183">
        <ele>329</ele>
        <time>2013-10-01T13:22:35Z</time>
      </trkpt>
      <trkpt lat="44.34271" lon="4.14168">
        <ele>327</ele>
        <time>2013-10-01T13:22:53Z</time>
      </trkpt>
      <trkpt lat="44.34258" lon="4.14151">
        <ele>327</ele>
        <time>2013-10-01T13:23:11Z</time>
      </trkpt>
      <trkpt lat="44.34249" lon="4.14131">
        <ele>317</ele>
        <time>2013-10-01T13:23:32Z</time>
      </trkpt>
      <trkpt lat="44.34246" lon="4.14107">
        <ele>320</ele>
        <time>2013-10-01T13:23:52Z</time>
      </trkpt>
      <trkpt lat="44.34257" lon="4.14088">
        <ele>312</ele>
        <time>2013-10-01T13:24:15Z</time>
      </trkpt>
      <trkpt lat="44.34271" lon="4.14072">
        <ele>309</ele>
        <time>2013-10-01T13:24:35Z</time>
      </trkpt>
      <trkpt lat="44.34274" lon="4.14049">
        <ele>318</ele>
        <time>2013-10-01T13:24:51Z</time>
      </trkpt>
      <trkpt lat="44.34273" lon="4.14025">
        <ele>319</ele>
        <time>2013-10-01T13:25:13Z</time>
      </trkpt>
      <trkpt lat="44.34275" lon="4.14001">
        <ele>318</ele>
        <time>2013-10-01T13:25:32Z</time>
      </trkpt>
      <trkpt lat="44.34276" lon="4.13977">
        <ele>310</ele>
        <time>2013-10-01T13:25:55Z</time>
      </trkpt>
      <trkpt lat="44.34279" lon="4.13953">
        <ele>303</ele>
        <time>2013-10-01T13:26:16Z</time>
      </trkpt>
      <trkpt lat="44.34277" lon="4.13928">
        <ele>304</ele>
        <time>2013-10-01T13:26:31Z</time>
      </trkpt>
      <trkpt lat="44.34274" lon="4.13904">
        <ele>288</ele>
        <time>2013-10-01T13:26:49Z</time>
      </trkpt>
      <trkpt lat="44.3427" lon="4.1388">
        <ele>287</ele>
        <time>2013-10-01T13:27:08Z</time>
      </trkpt>
      <trkpt lat="44.34257" lon="4.13865">
        <ele>295</ele>
        <time>2013-10-01T13:27:26Z</time>
      </trkpt>
      <trkpt lat="44.34239" lon="4.13863">
        <ele>326</ele>
        <time>2013-10-01T13:27:39Z</time>
      </trkpt>
      <trkpt lat="44.34228" lon="4.13881">
        <ele>331</ele>
        <time>2013-10-01T13:27:59Z</time>
      </trkpt>
      <trkpt lat="44.34215" lon="4.13899">
        <ele>337</ele>
        <time>2013-10-01T13:28:19Z</time>
      </trkpt>
      <trkpt lat="44.34202" lon="4.13915">
        <ele>333</ele>
        <time>2013-10-01T13:28:44Z</time>
      </trkpt>
      <trkpt lat="44.34192" lon="4.13934">
        <ele>334</ele>
        <time>2013-10-01T13:29:00Z</time>
      </trkpt>
      <trkpt lat="44.34184" lon="4.13955">
        <ele>327</ele>
        <time>2013-10-01T13:29:19Z</time>
      </trkpt>
      <trkpt lat="44.34174" lon="4.13975">
        <ele>322</ele>
        <time>2013-10-01T13:29:36Z</time>
      </trkpt>
      <trkpt lat="44.34169" lon="4.13999">
        <ele>320</ele>
        <time>2013-10-01T13:29:52Z</time>
      </trkpt>
      <trkpt lat="44.34167" lon="4.14024">
        <ele>317</ele>
        <time>2013-10-01T13:30:11Z</time>
      </trkpt>
      <trkpt lat="44.34164" lon="4.14048">
        <ele>321</ele>
        <time>2013-10-01T13:30:30Z</time>
      </trkpt>
      <trkpt lat="44.34156" lon="4.14069">
        <ele>321</ele>
        <time>2013-10-01T13:30:52Z</time>
      </trkpt>
      <trkpt lat="44.34151" lon="4.14092">
        <ele>320</ele>
        <time>2013-10-01T13:31:11Z</time>
      </trkpt>
      <trkpt lat="44.34147" lon="4.14117">
        <ele>311</ele>
        <time>2013-10-01T13:31:33Z</time>
      </trkpt>
      <trkpt lat="44.34135" lon="4.14135">
        <ele>309</ele>
        <time>2013-10-01T13:31:51Z</time>
      </trkpt>
      <trkpt lat="44.34119" lon="4.14142">
        <ele>309</ele>
        <time>2013-10-01T13:32:09Z</time>
      </trkpt>
      <trkpt lat="44.34107" lon="4.14159">
        <ele>307</ele>
        <time>2013-10-01T13:32:23Z</time>
      </trkpt>
      <trkpt lat="44.34097" lon="4.14179">
        <ele>304</ele>
        <time>2013-10-01T13:32:47Z</time>
      </trkpt>
      <trkpt lat="44.34084" lon="4.14197">
        <ele>305</ele>
        <time>2013-10-01T13:33:05Z</time>
      </trkpt>
      <trkpt lat="44.34069" lon="4.14211">
        <ele>303</ele>
        <time>2013-10-01T13:33:23Z</time>
      </trkpt>
      <trkpt lat="44.34053" lon="4.14216">
        <ele>309</ele>
        <time>2013-10-01T13:33:37Z</time>
      </trkpt>
      <trkpt lat="44.34036" lon="4.14222">
        <ele>306</ele>
        <time>2013-10-01T13:33:54Z</time>
      </trkpt>
      <trkpt lat="44.34019" lon="4.14228">
        <ele>308</ele>
        <time>2013-10-01T13:34:11Z</time>
      </trkpt>
      <trkpt lat="44.34004" lon="4.1424">
        <ele>311</ele>
        <time>2013-10-01T13:34:30Z</time>
      </trkpt>
      <trkpt lat="44.3399" lon="4.14255">
        <ele>311</ele>
        <time>2013-10-01T13:34:47Z</time>
      </trkpt>
      <trkpt lat="44.33975" lon="4.14268">
        <ele>304</ele>
        <time>2013-10-01T13:35:11Z</time>
      </trkpt>
      <trkpt lat="44.33967" lon="4.1429">
        <ele>295</ele>
        <time>2013-10-01T13:35:31Z</time>
      </trkpt>
      <trkpt lat="44.33961" lon="4.14313">
        <ele>281</ele>
        <time>2013-10-01T13:35:51Z</time>
      </trkpt>
      <trkpt lat="44.33956" lon="4.14335">
        <ele>272</ele>
        <time>2013-10-01T13:36:07Z</time>
      </trkpt>
      <trkpt lat="44.33952" lon="4.1436">
        <ele>271</ele>
        <time>2013-10-01T13:36:25Z</time>
      </trkpt>
      <trkpt lat="44.33947" lon="4.14383">
        <ele>286</ele>
        <time>2013-10-01T13:36:49Z</time>
      </trkpt>
      <trkpt lat="44.33936" lon="4.14401">
        <ele>283</ele>
        <time>2013-10-01T13:37:03Z</time>
      </trkpt>
      <trkpt lat="44.33927" lon="4.14421">
        <ele>277</ele>
        <time>2013-10-01T13:37:18Z</time>
      </trkpt>
      <trkpt lat="44.33922" lon="4.14445">
        <ele>279</ele>
        <time>2013-10-01T13:37:44Z</time>
      </trkpt>
      <trkpt lat="44.33912" lon="4.14463">
        <ele>271</ele>
        <time>2013-10-01T13:37:59Z</time>
      </trkpt>
      <trkpt lat="44.33902" lon="4.14484">
        <ele>263</ele>
        <time>2013-10-01T13:38:19Z</time>
      </trkpt>
      <trkpt lat="44.33894" lon="4.14505">
        <ele>254</ele>
        <time>2013-10-01T13:38:40Z</time>
      </trkpt>
      <trkpt lat="44.33885" lon="4.14526">
        <ele>247</ele>
        <time>2013-10-01T13:38:58Z</time>
      </trkpt>
      <trkpt lat="44.33883" lon="4.14551">
        <ele>251</ele>
        <time>2013-10-01T13:39:17Z</time>
      </trkpt>
      <trkpt lat="44.33876" lon="4.14573">
        <ele>244</ele>
        <time>2013-10-01T13:39:35Z</time>
      </trkpt>
      <trkpt lat="44.33871" lon="4.14596">
        <ele>241</ele>
        <time>2013-10-01T13:39:54Z</time>
      </trkpt>
      <trkpt lat="44.33865" lon="4.14619">
        <ele>241</ele>
        <time>2013-10-01T13:40:11Z</time>
      </trkpt>
      <trkpt lat="44.33859" lon="4.14642">
        <ele>243</ele>
        <time>2013-10-01T13:40:31Z</time>
      </trkpt>
      <trkpt lat="44.33852" lon="4.14664">
        <ele>242</ele>
        <time>2013-10-01T13:40:46Z</time>
      </trkpt>
      <trkpt lat="44.33856" lon="4.14686">
        <ele>255</ele>
        <time>2013-10-01T13:41:00Z</time>
      </trkpt>
      <trkpt lat="44.33863" lon="4.14708">
        <ele>276</ele>
        <time>2013-10-01T13:41:12Z</time>
      </trkpt>
      <trkpt lat="44.33857" lon="4.14731">
        <ele>281</ele>
        <time>2013-10-01T13:41:23Z</time>
      </trkpt>
      <trkpt lat="44.3385" lon="4.14753">
        <ele>283</ele>
        <time>2013-10-01T13:41:39Z</time>
      </trkpt>
      <trkpt lat="44.33845" lon="4.14776">
        <ele>286</ele>
        <time>2013-10-01T13:41:53Z</time>
      </trkpt>
      <trkpt lat="44.33831" lon="4.14791">
        <ele>285</ele>
        <time>2013-10-01T13:42:12Z</time>
      </trkpt>
      <trkpt lat="44.33814" lon="4.14782">
        <ele>283</ele>
        <time>2013-10-01T13:42:39Z</time>
      </trkpt>
      <trkpt lat="44.338" lon="4.14768">
        <ele>284</ele>
        <time>2013-10-01T13:43:00Z</time>
      </trkpt>
      <trkpt lat="44.33785" lon="4.14756">
        <ele>283</ele>
        <time>2013-10-01T13:43:18Z</time>
      </trkpt>
      <trkpt lat="44.33775" lon="4.14736">
        <ele>285</ele>
        <time>2013-10-01T13:43:36Z</time>
      </trkpt>
      <trkpt lat="44.33768" lon="4.14713">
        <ele>290</ele>
        <time>2013-10-01T13:43:52Z</time>
      </trkpt>
      <trkpt lat="44.33751" lon="4.1471">
        <ele>288</ele>
        <time>2013-10-01T13:44:12Z</time>
      </trkpt>
      <trkpt lat="44.33733" lon="4.14708">
        <ele>288</ele>
        <time>2013-10-01T13:44:31Z</time>
      </trkpt>
      <trkpt lat="44.33717" lon="4.14698">
        <ele>274</ele>
        <time>2013-10-01T13:44:57Z</time>
      </trkpt>
      <trkpt lat="44.33703" lon="4.14685">
        <ele>272</ele>
        <time>2013-10-01T13:45:17Z</time>
      </trkpt>
      <trkpt lat="44.3369" lon="4.14669">
        <ele>276</ele>
        <time>2013-10-01T13:45:31Z</time>
      </trkpt>
      <trkpt lat="44.33673" lon="4.14662">
        <ele>290</ele>
        <time>2013-10-01T13:45:43Z</time>
      </trkpt>
      <trkpt lat="44.33656" lon="4.14656">
        <ele>295</ele>
        <time>2013-10-01T13:45:59Z</time>
      </trkpt>
      <trkpt lat="44.33639" lon="4.14651">
        <ele>302</ele>
        <time>2013-10-01T13:46:17Z</time>
      </trkpt>
      <trkpt lat="44.33622" lon="4.14651">
        <ele>301</ele>
        <time>2013-10-01T13:46:30Z</time>
      </trkpt>
      <trkpt lat="44.33606" lon="4.14645">
        <ele>306</ele>
        <time>2013-10-01T13:46:43Z</time>
      </trkpt>
      <trkpt lat="44.33589" lon="4.14639">
        <ele>314</ele>
        <time>2013-10-01T13:46:58Z</time>
      </trkpt>
      <trkpt lat="44.33573" lon="4.14635">
        <ele>306</ele>
        <time>2013-10-01T13:47:19Z</time>
      </trkpt>
      <trkpt lat="44.33556" lon="4.14643">
        <ele>306</ele>
        <time>2013-10-01T13:47:33Z</time>
      </trkpt>
      <trkpt lat="44.33538" lon="4.14641">
        <ele>298</ele>
        <time>2013-10-01T13:47:56Z</time>
      </trkpt>
      <trkpt lat="44.33521" lon="4.14643">
        <ele>298</ele>
        <time>2013-10-01T13:48:14Z</time>
      </trkpt>
      <trkpt lat="44.33504" lon="4.1465">
        <ele>301</ele>
        <time>2013-10-01T13:48:27Z</time>
      </trkpt>
      <trkpt lat="44.33487" lon="4.14645">
        <ele>304</ele>
        <time>2013-10-01T13:48:45Z</time>
      </trkpt>
      <trkpt lat="44.3347" lon="4.1465">
        <ele>306</ele>
        <time>2013-10-01T13:49:01Z</time>
      </trkpt>
      <trkpt lat="44.33453" lon="4.14659">
        <ele>293</ele>
        <time>2013-10-01T13:49:23Z</time>
      </trkpt>
      <trkpt lat="44.33437" lon="4.14648">
        <ele>293</ele>
        <time>2013-10-01T13:49:49Z</time>
      </trkpt>
      <trkpt lat="44.33428" lon="4.14626">
        <ele>303</ele>
        <time>2013-10-01T13:54:14Z</time>
      </trkpt>
      <trkpt lat="44.33435" lon="4.14603">
        <ele>292</ele>
        <time>2013-10-01T13:54:50Z</time>
      </trkpt>
      <trkpt lat="44.33438" lon="4.14579">
        <ele>286</ele>
        <time>2013-10-01T13:55:13Z</time>
      </trkpt>
      <trkpt lat="44.33437" lon="4.14554">
        <ele>279</ele>
        <time>2013-10-01T13:55:35Z</time>
      </trkpt>
      <trkpt lat="44.33436" lon="4.1453">
        <ele>278</ele>
        <time>2013-10-01T13:55:54Z</time>
      </trkpt>
      <trkpt lat="44.3344" lon="4.14506">
        <ele>270</ele>
        <time>2013-10-01T13:56:17Z</time>
      </trkpt>
      <trkpt lat="44.33441" lon="4.14482">
        <ele>267</ele>
        <time>2013-10-01T13:56:38Z</time>
      </trkpt>
      <trkpt lat="44.33444" lon="4.14457">
        <ele>268</ele>
        <time>2013-10-01T13:56:57Z</time>
      </trkpt>
      <trkpt lat="44.33445" lon="4.14433">
        <ele>269</ele>
        <time>2013-10-01T13:57:16Z</time>
      </trkpt>
      <trkpt lat="44.33444" lon="4.14408">
        <ele>274</ele>
        <time>2013-10-01T13:57:33Z</time>
      </trkpt>
      <trkpt lat="44.33444" lon="4.14385">
        <ele>278</ele>
        <time>2013-10-01T13:57:50Z</time>
      </trkpt>
      <trkpt lat="44.33439" lon="4.14364">
        <ele>292</ele>
        <time>2013-10-01T13:58:00Z</time>
      </trkpt>
      <trkpt lat="44.33435" lon="4.14341">
        <ele>305</ele>
        <time>2013-10-01T13:58:12Z</time>
      </trkpt>
      <trkpt lat="44.33436" lon="4.14317">
        <ele>311</ele>
        <time>2013-10-01T13:58:29Z</time>
      </trkpt>
      <trkpt lat="44.33439" lon="4.14293">
        <ele>318</ele>
        <time>2013-10-01T13:58:50Z</time>
      </trkpt>
      <trkpt lat="44.33447" lon="4.14271">
        <ele>318</ele>
        <time>2013-10-01T13:59:08Z</time>
      </trkpt>
      <trkpt lat="44.33453" lon="4.14249">
        <ele>336</ele>
        <time>2013-10-01T13:59:28Z</time>
      </trkpt>
      <trkpt lat="44.33467" lon="4.14233">
        <ele>333</ele>
        <time>2013-10-01T13:59:49Z</time>
      </trkpt>
      <trkpt lat="44.33451" lon="4.14223">
        <ele>332</ele>
        <time>2013-10-01T14:00:16Z</time>
      </trkpt>
      <trkpt lat="44.33434" lon="4.14217">
        <ele>331</ele>
        <time>2013-10-01T14:00:39Z</time>
      </trkpt>
      <trkpt lat="44.33416" lon="4.14215">
        <ele>327</ele>
        <time>2013-10-01T14:01:06Z</time>
      </trkpt>
      <trkpt lat="44.33399" lon="4.14207">
        <ele>329</ele>
        <time>2013-10-01T14:01:35Z</time>
      </trkpt>
      <trkpt lat="44.33386" lon="4.1419">
        <ele>329</ele>
        <time>2013-10-01T14:02:07Z</time>
      </trkpt>
      <trkpt lat="44.33383" lon="4.14165">
        <ele>336</ele>
        <time>2013-10-01T14:05:34Z</time>
      </trkpt>
      <trkpt lat="44.33366" lon="4.14165">
        <ele>334</ele>
        <time>2013-10-01T14:08:02Z</time>
      </trkpt>
      <trkpt lat="44.33353" lon="4.14147">
        <ele>338</ele>
        <time>2013-10-01T14:08:24Z</time>
      </trkpt>
      <trkpt lat="44.33344" lon="4.14126">
        <ele>326</ele>
        <time>2013-10-01T14:08:51Z</time>
      </trkpt>
      <trkpt lat="44.33333" lon="4.14107">
        <ele>316</ele>
        <time>2013-10-01T14:09:16Z</time>
      </trkpt>
      <trkpt lat="44.3332" lon="4.14094">
        <ele>302</ele>
        <time>2013-10-01T14:09:39Z</time>
      </trkpt>
      <trkpt lat="44.33306" lon="4.14081">
        <ele>314</ele>
        <time>2013-10-01T14:09:48Z</time>
      </trkpt>
      <trkpt lat="44.33289" lon="4.14078">
        <ele>312</ele>
        <time>2013-10-01T14:10:02Z</time>
      </trkpt>
      <trkpt lat="44.33273" lon="4.14069">
        <ele>321</ele>
        <time>2013-10-01T14:10:12Z</time>
      </trkpt>
      <trkpt lat="44.33256" lon="4.14067">
        <ele>323</ele>
        <time>2013-10-01T14:10:30Z</time>
      </trkpt>
      <trkpt lat="44.33238" lon="4.14066">
        <ele>311</ele>
        <time>2013-10-01T14:10:52Z</time>
      </trkpt>
      <trkpt lat="44.33221" lon="4.14058">
        <ele>297</ele>
        <time>2013-10-01T14:11:16Z</time>
      </trkpt>
      <trkpt lat="44.33204" lon="4.14054">
        <ele>294</ele>
        <time>2013-10-01T14:11:34Z</time>
      </trkpt>
      <trkpt lat="44.33187" lon="4.14048">
        <ele>302</ele>
        <time>2013-10-01T14:11:47Z</time>
      </trkpt>
      <trkpt lat="44.3317" lon="4.14043">
        <ele>311</ele>
        <time>2013-10-01T14:11:59Z</time>
      </trkpt>
      <trkpt lat="44.33153" lon="4.14037">
        <ele>313</ele>
        <time>2013-10-01T14:12:14Z</time>
      </trkpt>
      <trkpt lat="44.33136" lon="4.14035">
        <ele>313</ele>
        <time>2013-10-01T14:12:33Z</time>
      </trkpt>
      <trkpt lat="44.33118" lon="4.14033">
        <ele>317</ele>
        <time>2013-10-01T14:12:49Z</time>
      </trkpt>
      <trkpt lat="44.33101" lon="4.14032">
        <ele>318</ele>
        <time>2013-10-01T14:13:18Z</time>
      </trkpt>
      <trkpt lat="44.33084" lon="4.14038">
        <ele>317</ele>
        <time>2013-10-01T14:13:35Z</time>
      </trkpt>
      <trkpt lat="44.33066" lon="4.14034">
        <ele>314</ele>
        <time>2013-10-01T14:13:56Z</time>
      </trkpt>
      <trkpt lat="44.33049" lon="4.14035">
        <ele>308</ele>
        <time>2013-10-01T14:14:17Z</time>
      </trkpt>
      <trkpt lat="44.33032" lon="4.14035">
        <ele>310</ele>
        <time>2013-10-01T14:14:31Z</time>
      </trkpt>
      <trkpt lat="44.33015" lon="4.14035">
        <ele>309</ele>
        <time>2013-10-01T14:14:48Z</time>
      </trkpt>
      <trkpt lat="44.32997" lon="4.14037">
        <ele>309</ele>
        <time>2013-10-01T14:15:11Z</time>
      </trkpt>
      <trkpt lat="44.3298" lon="4.14043">
        <ele>312</ele>
        <time>2013-10-01T14:16:24Z</time>
      </trkpt>
      <trkpt lat="44.32963" lon="4.14044">
        <ele>309</ele>
        <time>2013-10-01T14:16:48Z</time>
      </trkpt>
      <trkpt lat="44.32946" lon="4.14053">
        <ele>305</ele>
        <time>2013-10-01T14:17:12Z</time>
      </trkpt>
      <trkpt lat="44.32929" lon="4.14057">
        <ele>302</ele>
        <time>2013-10-01T14:17:32Z</time>
      </trkpt>
      <trkpt lat="44.32915" lon="4.14042">
        <ele>298</ele>
        <time>2013-10-01T14:17:51Z</time>
      </trkpt>
      <trkpt lat="44.32899" lon="4.14034">
        <ele>298</ele>
        <time>2013-10-01T14:18:08Z</time>
      </trkpt>
      <trkpt lat="44.32882" lon="4.14028">
        <ele>300</ele>
        <time>2013-10-01T14:18:24Z</time>
      </trkpt>
      <trkpt lat="44.32866" lon="4.14023">
        <ele>300</ele>
        <time>2013-10-01T14:18:42Z</time>
      </trkpt>
      <trkpt lat="44.32849" lon="4.14012">
        <ele>298</ele>
        <time>2013-10-01T14:19:03Z</time>
      </trkpt>
      <trkpt lat="44.32833" lon="4.14005">
        <ele>290</ele>
        <time>2013-10-01T14:19:40Z</time>
      </trkpt>
      <trkpt lat="44.32816" lon="4.14002">
        <ele>290</ele>
        <time>2013-10-01T14:20:16Z</time>
      </trkpt>
      <trkpt lat="44.32798" lon="4.13999">
        <ele>276</ele>
        <time>2013-10-01T14:20:59Z</time>
      </trkpt>
      <trkpt lat="44.32784" lon="4.13984">
        <ele>273</ele>
        <time>2013-10-01T14:21:34Z</time>
      </trkpt>
      <trkpt lat="44.32772" lon="4.13969">
        <ele>268</ele>
        <time>2013-10-01T14:21:54Z</time>
      </trkpt>
      <trkpt lat="44.32764" lon="4.13947">
        <ele>270</ele>
        <time>2013-10-01T14:22:10Z</time>
      </trkpt>
      <trkpt lat="44.32757" lon="4.13924">
        <ele>287</ele>
        <time>2013-10-01T14:22:25Z</time>
      </trkpt>
      <trkpt lat="44.32755" lon="4.139">
        <ele>282</ele>
        <time>2013-10-01T14:22:45Z</time>
      </trkpt>
      <trkpt lat="44.32752" lon="4.13875">
        <ele>281</ele>
        <time>2013-10-01T14:23:01Z</time>
      </trkpt>
      <trkpt lat="44.32757" lon="4.13851">
        <ele>278</ele>
        <time>2013-10-01T14:23:23Z</time>
      </trkpt>
      <trkpt lat="44.32754" lon="4.13827">
        <ele>275</ele>
        <time>2013-10-01T14:23:43Z</time>
      </trkpt>
      <trkpt lat="44.32749" lon="4.13803">
        <ele>278</ele>
        <time>2013-10-01T14:24:03Z</time>
      </trkpt>
      <trkpt lat="44.32733" lon="4.1379">
        <ele>271</ele>
        <time>2013-10-01T14:24:27Z</time>
      </trkpt>
      <trkpt lat="44.32719" lon="4.13778">
        <ele>264</ele>
        <time>2013-10-01T14:24:55Z</time>
      </trkpt>
      <trkpt lat="44.32705" lon="4.13764">
        <ele>259</ele>
        <time>2013-10-01T14:25:29Z</time>
      </trkpt>
      <trkpt lat="44.32691" lon="4.13748">
        <ele>266</ele>
        <time>2013-10-01T14:25:38Z</time>
      </trkpt>
      <trkpt lat="44.32679" lon="4.13732">
        <ele>256</ele>
        <time>2013-10-01T14:26:06Z</time>
      </trkpt>
      <trkpt lat="44.32664" lon="4.1372">
        <ele>244</ele>
        <time>2013-10-01T14:26:37Z</time>
      </trkpt>
      <trkpt lat="44.3265" lon="4.1371">
        <ele>241</ele>
        <time>2013-10-01T14:27:02Z</time>
      </trkpt>
      <trkpt lat="44.32634" lon="4.137">
        <ele>252</ele>
        <time>2013-10-01T14:27:15Z</time>
      </trkpt>
      <trkpt lat="44.32616" lon="4.13703">
        <ele>256</ele>
        <time>2013-10-01T14:27:42Z</time>
      </trkpt>
      <trkpt lat="44.32598" lon="4.13706">
        <ele>260</ele>
        <time>2013-10-01T14:28:01Z</time>
      </trkpt>
      <trkpt lat="44.3258" lon="4.13707">
        <ele>258</ele>
        <time>2013-10-01T14:28:25Z</time>
      </trkpt>
      <trkpt lat="44.32563" lon="4.13709">
        <ele>254</ele>
        <time>2013-10-01T14:28:55Z</time>
      </trkpt>
      <trkpt lat="44.32547" lon="4.13699">
        <ele>265</ele>
        <time>2013-10-01T14:29:22Z</time>
      </trkpt>
      <trkpt lat="44.3253" lon="4.13702">
        <ele>248</ele>
        <time>2013-10-01T14:30:02Z</time>
      </trkpt>
      <trkpt lat="44.32513" lon="4.13696">
        <ele>228</ele>
        <time>2013-10-01T14:30:35Z</time>
      </trkpt>
      <trkpt lat="44.32495" lon="4.13696">
        <ele>228</ele>
        <time>2013-10-01T14:30:55Z</time>
      </trkpt>
      <trkpt lat="44.32478" lon="4.13691">
        <ele>242</ele>
        <time>2013-10-01T14:31:06Z</time>
      </trkpt>
      <trkpt lat="44.3246" lon="4.13696">
        <ele>244</ele>
        <time>2013-10-01T14:31:40Z</time>
      </trkpt>
      <trkpt lat="44.32443" lon="4.13691">
        <ele>237</ele>
        <time>2013-10-01T14:32:16Z</time>
      </trkpt>
      <trkpt lat="44.32427" lon="4.13682">
        <ele>237</ele>
        <time>2013-10-01T14:33:50Z</time>
      </trkpt>
      <trkpt lat="44.32444" lon="4.13674">
        <ele>235</ele>
        <time>2013-10-01T14:37:18Z</time>
      </trkpt>
      <trkpt lat="44.32461" lon="4.13671">
        <ele>237</ele>
        <time>2013-10-01T14:37:35Z</time>
      </trkpt>
      <trkpt lat="44.32477" lon="4.13665">
        <ele>237</ele>
        <time>2013-10-01T14:37:55Z</time>
      </trkpt>
      <trkpt lat="44.32495" lon="4.13659">
        <ele>238</ele>
        <time>2013-10-01T14:38:14Z</time>
      </trkpt>
      <trkpt lat="44.32512" lon="4.13654">
        <ele>232</ele>
        <time>2013-10-01T14:38:33Z</time>
      </trkpt>
      <trkpt lat="44.32529" lon="4.13649">
        <ele>231</ele>
        <time>2013-10-01T14:38:51Z</time>
      </trkpt>
      <trkpt lat="44.32546" lon="4.13645">
        <ele>234</ele>
        <time>2013-10-01T14:39:06Z</time>
      </trkpt>
      <trkpt lat="44.32562" lon="4.13637">
        <ele>238</ele>
        <time>2013-10-01T14:39:23Z</time>
      </trkpt>
      <trkpt lat="44.32579" lon="4.13631">
        <ele>238</ele>
        <time>2013-10-01T14:39:40Z</time>
      </trkpt>
      <trkpt lat="44.32596" lon="4.13628">
        <ele>238</ele>
        <time>2013-10-01T14:39:57Z</time>
      </trkpt>
      <trkpt lat="44.32613" lon="4.13624">
        <ele>236</ele>
        <time>2013-10-01T14:40:15Z</time>
      </trkpt>
      <trkpt lat="44.32631" lon="4.1362">
        <ele>238</ele>
        <time>2013-10-01T14:40:32Z</time>
      </trkpt>
      <trkpt lat="44.32648" lon="4.13618">
        <ele>240</ele>
        <time>2013-10-01T14:40:50Z</time>
      </trkpt>
      <trkpt lat="44.32665" lon="4.13618">
        <ele>244</ele>
        <time>2013-10-01T14:41:06Z</time>
      </trkpt>
      <trkpt lat="44.32683" lon="4.13618">
        <ele>243</ele>
        <time>2013-10-01T14:41:24Z</time>
      </trkpt>
      <trkpt lat="44.327" lon="4.1362">
        <ele>240</ele>
        <time>2013-10-01T14:41:44Z</time>
      </trkpt>
      <trkpt lat="44.32717" lon="4.13621">
        <ele>240</ele>
        <time>2013-10-01T14:42:01Z</time>
      </trkpt>
      <trkpt lat="44.32734" lon="4.13625">
        <ele>240</ele>
        <time>2013-10-01T14:42:18Z</time>
      </trkpt>
      <trkpt lat="44.32751" lon="4.13632">
        <ele>238</ele>
        <time>2013-10-01T14:42:34Z</time>
      </trkpt>
      <trkpt lat="44.32768" lon="4.13638">
        <ele>238</ele>
        <time>2013-10-01T14:42:52Z</time>
      </trkpt>
      <trkpt lat="44.32785" lon="4.13644">
        <ele>237</ele>
        <time>2013-10-01T14:43:08Z</time>
      </trkpt>
      <trkpt lat="44.32802" lon="4.13649">
        <ele>245</ele>
        <time>2013-10-01T14:43:21Z</time>
      </trkpt>
      <trkpt lat="44.32819" lon="4.13654">
        <ele>246</ele>
        <time>2013-10-01T14:43:36Z</time>
      </trkpt>
      <trkpt lat="44.32836" lon="4.1366">
        <ele>241</ele>
        <time>2013-10-01T14:43:55Z</time>
      </trkpt>
      <trkpt lat="44.32853" lon="4.13667">
        <ele>239</ele>
        <time>2013-10-01T14:44:15Z</time>
      </trkpt>
      <trkpt lat="44.3287" lon="4.13674">
        <ele>239</ele>
        <time>2013-10-01T14:44:33Z</time>
      </trkpt>
      <trkpt lat="44.32886" lon="4.13683">
        <ele>234</ele>
        <time>2013-10-01T14:44:54Z</time>
      </trkpt>
      <trkpt lat="44.32903" lon="4.1369">
        <ele>230</ele>
        <time>2013-10-01T14:45:10Z</time>
      </trkpt>
      <trkpt lat="44.32918" lon="4.13701">
        <ele>229</ele>
        <time>2013-10-01T14:45:26Z</time>
      </trkpt>
      <trkpt lat="44.32936" lon="4.13707">
        <ele>234</ele>
        <time>2013-10-01T14:45:39Z</time>
      </trkpt>
      <trkpt lat="44.32952" lon="4.13715">
        <ele>233</ele>
        <time>2013-10-01T14:45:54Z</time>
      </trkpt>
      <trkpt lat="44.32968" lon="4.13726">
        <ele>233</ele>
        <time>2013-10-01T14:46:12Z</time>
      </trkpt>
      <trkpt lat="44.32983" lon="4.1374">
        <ele>234</ele>
        <time>2013-10-01T14:46:28Z</time>
      </trkpt>
      <trkpt lat="44.32998" lon="4.13752">
        <ele>239</ele>
        <time>2013-10-01T14:46:45Z</time>
      </trkpt>
      <trkpt lat="44.33014" lon="4.13764">
        <ele>242</ele>
        <time>2013-10-01T14:47:02Z</time>
      </trkpt>
      <trkpt lat="44.3303" lon="4.13773">
        <ele>240</ele>
        <time>2013-10-01T14:47:29Z</time>
      </trkpt>
      <trkpt lat="44.33039" lon="4.13795">
        <ele>249</ele>
        <time>2013-10-01T14:49:13Z</time>
      </trkpt>
      <trkpt lat="44.33052" lon="4.13812">
        <ele>250</ele>
        <time>2013-10-01T14:49:54Z</time>
      </trkpt>
      <trkpt lat="44.33378" lon="4.14909">
        <ele>253</ele>
        <time>2013-10-01T15:06:47Z</time>
      </trkpt>
      <trkpt lat="44.33385" lon="4.14931">
        <ele>248</ele>
        <time>2013-10-01T15:07:09Z</time>
      </trkpt>
      <trkpt lat="44.33395" lon="4.14951">
        <ele>251</ele>
        <time>2013-10-01T15:07:27Z</time>
      </trkpt>
      <trkpt lat="44.33409" lon="4.14965">
        <ele>249</ele>
        <time>2013-10-01T15:07:49Z</time>
      </trkpt>
      <trkpt lat="44.33423" lon="4.1498">
        <ele>242</ele>
        <time>2013-10-01T15:08:12Z</time>
      </trkpt>
      <trkpt lat="44.33438" lon="4.14994">
        <ele>258</ele>
        <time>2013-10-01T15:08:42Z</time>
      </trkpt>
      <trkpt lat="44.33434" lon="4.15018">
        <ele>247</ele>
        <time>2013-10-01T15:09:27Z</time>
      </trkpt>
      <trkpt lat="44.33443" lon="4.1504">
        <ele>248</ele>
        <time>2013-10-01T15:10:24Z</time>
      </trkpt>
      <trkpt lat="44.33457" lon="4.15054">
        <ele>246</ele>
        <time>2013-10-01T15:10:47Z</time>
      </trkpt>
      <trkpt lat="44.33472" lon="4.15066">
        <ele>239</ele>
        <time>2013-10-01T15:11:10Z</time>
      </trkpt>
      <trkpt lat="44.33487" lon="4.15081">
        <ele>237</ele>
        <time>2013-10-01T15:11:31Z</time>
      </trkpt>
      <trkpt lat="44.33502" lon="4.15094">
        <ele>240</ele>
        <time>2013-10-01T15:11:51Z</time>
      </trkpt>
      <trkpt lat="44.33515" lon="4.15109">
        <ele>247</ele>
        <time>2013-10-01T15:12:10Z</time>
      </trkpt>
      <trkpt lat="44.33528" lon="4.15125">
        <ele>248</ele>
        <time>2013-10-01T15:12:31Z</time>
      </trkpt>
      <trkpt lat="44.33543" lon="4.15137">
        <ele>242</ele>
        <time>2013-10-01T15:12:51Z</time>
      </trkpt>
      <trkpt lat="44.33556" lon="4.15153">
        <ele>250</ele>
        <time>2013-10-01T15:13:07Z</time>
      </trkpt>
      <trkpt lat="44.33571" lon="4.15167">
        <ele>252</ele>
        <time>2013-10-01T15:13:25Z</time>
      </trkpt>
      <trkpt lat="44.33586" lon="4.15178">
        <ele>247</ele>
        <time>2013-10-01T15:13:44Z</time>
      </trkpt>
      <trkpt lat="44.33603" lon="4.15187">
        <ele>244</ele>
        <time>2013-10-01T15:14:03Z</time>
      </trkpt>
      <trkpt lat="44.33618" lon="4.152">
        <ele>242</ele>
        <time>2013-10-01T15:14:22Z</time>
      </trkpt>
      <trkpt lat="44.33632" lon="4.15215">
        <ele>248</ele>
        <time>2013-10-01T15:14:40Z</time>
      </trkpt>
      <trkpt lat="44.33647" lon="4.15226">
        <ele>244</ele>
        <time>2013-10-01T15:14:58Z</time>
      </trkpt>
      <trkpt lat="44.33663" lon="4.15238">
        <ele>250</ele>
        <time>2013-10-01T15:15:16Z</time>
      </trkpt>
      <trkpt lat="44.33678" lon="4.15249">
        <ele>253</ele>
        <time>2013-10-01T15:15:35Z</time>
      </trkpt>
      <trkpt lat="44.33695" lon="4.15257">
        <ele>258</ele>
        <time>2013-10-01T15:15:59Z</time>
      </trkpt>
      <trkpt lat="44.33711" lon="4.15265">
        <ele>264</ele>
        <time>2013-10-01T15:16:18Z</time>
      </trkpt>
      <trkpt lat="44.33729" lon="4.15262">
        <ele>262</ele>
        <time>2013-10-01T15:16:39Z</time>
      </trkpt>
      <trkpt lat="44.33747" lon="4.15265">
        <ele>266</ele>
        <time>2013-10-01T15:17:05Z</time>
      </trkpt>
      <trkpt lat="44.33764" lon="4.15267">
        <ele>268</ele>
        <time>2013-10-01T15:17:21Z</time>
      </trkpt>
      <trkpt lat="44.33782" lon="4.1527">
        <ele>264</ele>
        <time>2013-10-01T15:17:41Z</time>
      </trkpt>
      <trkpt lat="44.33797" lon="4.15258">
        <ele>265</ele>
        <time>2013-10-01T15:18:10Z</time>
      </trkpt>
      <trkpt lat="44.33815" lon="4.1526">
        <ele>267</ele>
        <time>2013-10-01T15:23:41Z</time>
      </trkpt>
      <trkpt lat="44.33828" lon="4.15244">
        <ele>262</ele>
        <time>2013-10-01T15:24:05Z</time>
      </trkpt>
      <trkpt lat="44.33844" lon="4.15243">
        <ele>266</ele>
        <time>2013-10-01T15:24:42Z</time>
      </trkpt>
      <trkpt lat="44.33844" lon="4.15243">
        <ele>266</ele>
        <time>2013-10-01T15:24:42Z</time>
      </trkpt>
    </trkseg>
  </trk>
</gpx>